createdAt,value
2019-03-29T00:00:49.183Z,58
2019-03-29T00:10:52.699Z,58
2019-03-29T00:20:56.203Z,57
2019-03-29T00:30:59.706Z,57
2019-03-29T00:41:03.183Z,58
2019-03-29T00:51:06.691Z,57
2019-03-29T01:01:10.228Z,58
2019-03-29T01:11:15.287Z,57
2019-03-29T01:21:18.783Z,56
2019-03-29T01:31:22.306Z,56
2019-03-29T01:41:27.490Z,58
2019-03-29T01:51:31.046Z,56
2019-03-29T02:01:34.560Z,56
2019-03-29T02:11:38.068Z,56
2019-03-29T02:21:43.281Z,56
2019-03-29T02:31:46.819Z,56
2019-03-29T02:41:50.338Z,56
2019-03-29T02:51:53.886Z,56
2019-03-29T03:01:57.441Z,57
2019-03-29T03:12:00.978Z,57
2019-03-29T03:22:04.504Z,57
2019-03-29T03:32:08.113Z,56
2019-03-29T03:42:11.647Z,55
2019-03-29T03:52:15.186Z,55
2019-03-29T04:02:18.778Z,54
2019-03-29T04:12:22.323Z,54
2019-03-29T04:22:25.850Z,54
2019-03-29T04:32:29.487Z,54
2019-03-29T04:42:33.011Z,54
2019-03-29T04:52:36.528Z,54
2019-03-29T05:02:40.042Z,53
2019-03-29T05:12:43.537Z,54
2019-03-29T05:22:47.039Z,54
2019-03-29T05:32:50.551Z,54
2019-03-29T05:42:54.068Z,54
2019-03-29T05:52:57.638Z,54
2019-03-29T06:03:01.175Z,54
2019-03-29T06:13:04.675Z,54
2019-03-29T06:23:08.175Z,55
2019-03-29T06:33:11.660Z,55
2019-03-29T06:43:15.236Z,55
2019-03-29T06:53:18.739Z,55
2019-03-29T07:03:22.247Z,56
2019-03-29T07:13:25.752Z,56
2019-03-29T07:23:29.244Z,56
2019-03-29T07:33:32.742Z,56
2019-03-29T07:43:36.269Z,57
2019-03-29T07:53:39.773Z,57
2019-03-29T08:03:43.273Z,56
2019-03-29T08:13:46.829Z,57
2019-03-29T08:23:50.301Z,55
2019-03-29T08:33:53.804Z,64
2019-03-29T08:43:57.323Z,69
2019-03-29T08:54:00.837Z,69
2019-03-29T09:04:06.358Z,69
2019-03-29T09:14:09.842Z,69
2019-03-29T09:24:22.871Z,69
2019-03-29T09:34:29.206Z,68
2019-03-29T09:44:32.772Z,68
2019-03-29T09:54:36.277Z,69
2019-03-29T10:04:39.811Z,68
2019-03-29T10:14:43.316Z,67
2019-03-29T10:24:46.784Z,64
2019-03-29T10:34:50.278Z,64
2019-03-29T10:44:53.823Z,65
2019-03-29T10:54:57.331Z,67
2019-03-29T11:05:00.869Z,67
2019-03-29T11:15:07.253Z,66
2019-03-29T11:25:10.749Z,80
2019-03-29T11:35:14.310Z,84
2019-03-29T11:45:17.809Z,85
2019-03-29T11:55:21.317Z,84
2019-03-29T12:05:24.819Z,82
2019-03-29T12:15:28.324Z,82
2019-03-29T12:25:31.825Z,76
2019-03-29T12:35:35.331Z,73
2019-03-29T12:45:38.846Z,72
2019-03-29T12:55:42.434Z,73
2019-03-29T13:05:46.040Z,72
2019-03-29T13:15:49.553Z,71
2019-03-29T13:25:53.031Z,72
2019-03-29T13:35:56.537Z,71
2019-03-29T13:46:00.044Z,72
2019-03-29T13:56:03.550Z,72
2019-03-29T14:06:08.140Z,73
2019-03-29T14:16:11.663Z,74
2019-03-29T14:26:16.578Z,77
2019-03-29T14:36:20.142Z,78
2019-03-29T14:46:23.624Z,77
2019-03-29T14:56:27.261Z,75
2019-03-29T15:06:30.764Z,74
2019-03-29T15:16:34.286Z,71
2019-03-29T15:26:37.788Z,69
2019-03-29T15:36:41.276Z,69
2019-03-29T15:46:44.906Z,69
2019-03-29T15:56:48.432Z,69
2019-03-29T16:06:52.000Z,47
2019-03-29T16:16:55.582Z,42
2019-03-29T16:26:59.107Z,47
2019-03-29T16:37:02.601Z,50
2019-03-29T16:47:06.099Z,50
2019-03-29T16:57:09.597Z,52
2019-03-29T17:07:13.101Z,50
2019-03-29T17:17:16.682Z,47
2019-03-29T17:27:20.199Z,49
2019-03-29T17:37:23.707Z,48
2019-03-29T17:47:27.187Z,44
2019-03-29T17:57:30.694Z,48
2019-03-29T18:07:34.209Z,49
2019-03-29T18:17:37.704Z,50
2019-03-29T18:27:41.182Z,58
2019-03-29T18:37:44.682Z,60
2019-03-29T18:47:48.208Z,61
2019-03-29T18:57:51.744Z,62
2019-03-29T19:07:55.228Z,62
2019-03-29T19:17:58.728Z,63
2019-03-29T19:28:02.257Z,62
2019-03-29T19:38:05.771Z,62
2019-03-29T19:48:09.251Z,62
2019-03-29T19:58:12.944Z,62
2019-03-29T20:08:16.541Z,61
2019-03-29T20:18:20.035Z,61
2019-03-29T20:28:23.554Z,62
2019-03-29T20:38:27.039Z,61
2019-03-29T20:48:30.572Z,62
2019-03-29T20:58:35.093Z,62
2019-03-29T21:08:38.603Z,61
2019-03-29T21:18:42.145Z,61
2019-03-29T21:28:45.652Z,62
2019-03-29T21:38:49.135Z,61
2019-03-29T21:48:52.654Z,61
2019-03-29T21:58:56.157Z,61
2019-03-29T22:08:59.686Z,61
2019-03-29T22:19:03.208Z,61
2019-03-29T22:29:06.718Z,61
2019-03-29T22:39:10.204Z,61
2019-03-29T22:49:13.710Z,61
2019-03-29T22:59:17.243Z,61
2019-03-29T23:09:20.759Z,60
2019-03-29T23:19:24.249Z,60
2019-03-29T23:29:27.767Z,60
2019-03-29T23:39:31.278Z,59
2019-03-29T23:49:34.772Z,61
2019-03-29T23:59:38.295Z,60
